^^
Meteo Knjazevac Station Historical Data
Daily Summary for January 23, 2021 Units:  English    Metric   Both
Daily Weekly Monthly Yearly Custom
  High: Low: Average:
Temperature: 71.9 °F 67.2 °F 69.3 °F
Dew Point: 68.8 °F 65.7 °F 67.3 °F
Humidity: 95% 90% 93%
Wind Speed: 2mph 0mph 0.7mph
Wind Gust: 6mph - -
Wind- - West
Pressure: 30.03 in 30.02 in -
Precipitation: 0.00 in    
Historical Graphs
 
 
Tabular Data for January 23, 2021
Time Temperature Dew Point Pressure Wind Wind Speed Wind Gust Humidity Rainfall Rate (Hourly) solar Conditions
00:00 71.9 °F 68.8 °F 30.02 in WNW 1 mph 3 mph 90% 0.00 in 0 W/m2
00:10 71.8 °F 68.7 °F 30.02 in Calm   2 mph 90% 0.00 in 0 W/m2
00:20 71.6 °F 68.5 °F 30.02 in Calm   1 mph 90% 0.00 in 0 W/m2
00:30 71.4 °F 68.3 °F 30.02 in Calm   1 mph 90% 0.00 in 0 W/m2
00:40 71.2 °F 68.5 °F 30.02 in NW 2 mph 2 mph 91% 0.00 in 0 W/m2
00:50 70.7 °F 67.9 °F 30.02 in West 1 mph 2 mph 91% 0.00 in 0 W/m2
01:00 70.3 °F 67.6 °F 30.02 in Calm   2 mph 91% 0.00 in 0 W/m2
01:10 70 °F 67.9 °F 30.02 in Calm   2 mph 93% 0.00 in 0 W/m2
01:20 69.6 °F 67.5 °F 30.02 in SW 2 mph 3 mph 93% 0.00 in 0 W/m2
01:30 69.1 °F 67.3 °F 30.02 in WNW 2 mph 4 mph 94% 0.00 in 0 W/m2
01:40 69.1 °F 67.6 °F 30.03 in West 2 mph 4 mph 95% 0.00 in 0 W/m2
01:50 68.9 °F 67.4 °F 30.03 in West 1 mph 6 mph 95% 0.00 in 0 W/m2
02:00 68.7 °F 67.2 °F 30.03 in West 2 mph 3 mph 95% 0.00 in 0 W/m2
02:10 68.5 °F 67.1 °F 30.03 in Calm   3 mph 95% 0.00 in 0 W/m2
02:20 68.5 °F 67.1 °F 30.03 in West 1 mph 2 mph 95% 0.00 in 0 W/m2
02:30 68.3 °F 66.8 °F 30.03 in WSW 1 mph 3 mph 95% 0.00 in 0 W/m2
02:40 68 °F 66.5 °F 30.03 in Calm   2 mph 95% 0.00 in 0 W/m2
02:50 68 °F 66.5 °F 30.03 in Calm   1 mph 95% 0.00 in 0 W/m2
03:00 67.8 °F 66.3 °F 30.02 in West 1 mph 2 mph 95% 0.00 in 0 W/m2
03:10 67.5 °F 66 °F 30.03 in Calm   1 mph 95% 0.00 in 0 W/m2
03:20 67.5 °F 66 °F 30.03 in Calm   1 mph 95% 0.00 in 0 W/m2
03:30 67.2 °F 65.7 °F 30.03 in Calm   2 mph 95% 0.00 in 0 W/m2
Knjazevac, Serbia
Compliments of Weather Underground - 2 mb